sensor_id;sensor_type;location;lat;lon;timestamp;P1;durP1;ratioP1;P2;durP2;ratioP2
71187;SDS011;58893;53.130;8.158;2023-04-05T00:01:33;9.77;;;4.87;;
71187;SDS011;58893;53.130;8.158;2023-04-05T00:03:59;7.33;;;3.60;;
71187;SDS011;58893;53.130;8.158;2023-04-05T00:06:27;7.17;;;3.50;;
71187;SDS011;58893;53.130;8.158;2023-04-05T00:08:53;7.27;;;3.67;;
71187;SDS011;58893;53.130;8.158;2023-04-05T00:11:23;5.50;;;3.13;;
71187;SDS011;58893;53.130;8.158;2023-04-05T00:13:52;11.17;;;3.50;;
71187;SDS011;58893;53.130;8.158;2023-04-05T00:16:18;8.67;;;3.47;;
71187;SDS011;58893;53.130;8.158;2023-04-05T00:18:45;8.20;;;3.87;;
71187;SDS011;58893;53.130;8.158;2023-04-05T00:21:16;5.20;;;3.27;;
71187;SDS011;58893;53.130;8.158;2023-04-05T00:23:46;6.03;;;3.23;;
71187;SDS011;58893;53.130;8.158;2023-04-05T00:26:12;13.40;;;3.67;;
71187;SDS011;58893;53.130;8.158;2023-04-05T00:28:38;7.10;;;4.17;;
71187;SDS011;58893;53.130;8.158;2023-04-05T00:31:04;7.50;;;3.40;;
71187;SDS011;58893;53.130;8.158;2023-04-05T00:33:30;5.27;;;2.97;;
71187;SDS011;58893;53.130;8.158;2023-04-05T00:35:56;7.43;;;4.13;;
71187;SDS011;58893;53.130;8.158;2023-04-05T00:38:22;7.23;;;3.67;;
71187;SDS011;58893;53.130;8.158;2023-04-05T00:40:47;6.67;;;3.50;;
71187;SDS011;58893;53.130;8.158;2023-04-05T00:43:13;5.10;;;3.93;;
71187;SDS011;58893;53.130;8.158;2023-04-05T00:45:40;4.77;;;3.23;;
71187;SDS011;58893;53.130;8.158;2023-04-05T00:48:06;11.00;;;4.10;;
71187;SDS011;58893;53.130;8.158;2023-04-05T00:50:32;4.60;;;3.20;;
71187;SDS011;58893;53.130;8.158;2023-04-05T00:52:58;5.87;;;3.20;;
71187;SDS011;58893;53.130;8.158;2023-04-05T00:55:24;9.70;;;3.87;;
71187;SDS011;58893;53.130;8.158;2023-04-05T00:57:54;8.00;;;3.70;;
71187;SDS011;58893;53.130;8.158;2023-04-05T01:00:22;11.43;;;3.97;;
71187;SDS011;58893;53.130;8.158;2023-04-05T01:02:57;4.30;;;2.77;;
71187;SDS011;58893;53.130;8.158;2023-04-05T01:05:41;5.80;;;3.10;;
71187;SDS011;58893;53.130;8.158;2023-04-05T01:08:21;18.23;;;4.03;;
71187;SDS011;58893;53.130;8.158;2023-04-05T01:10:56;6.07;;;3.57;;
71187;SDS011;58893;53.130;8.158;2023-04-05T01:13:25;8.17;;;3.00;;
71187;SDS011;58893;53.130;8.158;2023-04-05T01:15:53;5.63;;;3.90;;
71187;SDS011;58893;53.130;8.158;2023-04-05T01:18:18;5.50;;;2.87;;
71187;SDS011;58893;53.130;8.158;2023-04-05T01:20:48;7.20;;;4.13;;
71187;SDS011;58893;53.130;8.158;2023-04-05T01:31:46;5.23;;;3.20;;
71187;SDS011;58893;53.130;8.158;2023-04-05T01:34:28;5.93;;;3.73;;
71187;SDS011;58893;53.130;8.158;2023-04-05T01:37:13;7.37;;;3.60;;
71187;SDS011;58893;53.130;8.158;2023-04-05T01:39:41;6.50;;;3.40;;
71187;SDS011;58893;53.130;8.158;2023-04-05T01:42:08;8.80;;;3.53;;
71187;SDS011;58893;53.130;8.158;2023-04-05T01:44:34;5.73;;;3.20;;
71187;SDS011;58893;53.130;8.158;2023-04-05T01:47:00;4.63;;;3.20;;
71187;SDS011;58893;53.130;8.158;2023-04-05T01:49:25;7.30;;;3.47;;
71187;SDS011;58893;53.130;8.158;2023-04-05T01:51:51;4.87;;;3.20;;
71187;SDS011;58893;53.130;8.158;2023-04-05T01:54:17;6.10;;;3.63;;
71187;SDS011;58893;53.130;8.158;2023-04-05T01:56:42;5.33;;;2.77;;
71187;SDS011;58893;53.130;8.158;2023-04-05T01:59:08;5.47;;;3.67;;
71187;SDS011;58893;53.130;8.158;2023-04-05T02:01:34;4.70;;;2.90;;
71187;SDS011;58893;53.130;8.158;2023-04-05T02:04:00;12.00;;;3.70;;
71187;SDS011;58893;53.130;8.158;2023-04-05T02:06:25;5.40;;;4.00;;
71187;SDS011;58893;53.130;8.158;2023-04-05T02:08:51;8.60;;;4.13;;
71187;SDS011;58893;53.130;8.158;2023-04-05T02:11:17;7.13;;;3.67;;
71187;SDS011;58893;53.130;8.158;2023-04-05T02:13:43;8.37;;;4.37;;
71187;SDS011;58893;53.130;8.158;2023-04-05T02:16:08;5.40;;;3.53;;
71187;SDS011;58893;53.130;8.158;2023-04-05T02:18:35;6.23;;;3.80;;
71187;SDS011;58893;53.130;8.158;2023-04-05T02:21:07;7.53;;;3.47;;
71187;SDS011;58893;53.130;8.158;2023-04-05T02:23:36;6.80;;;4.03;;
71187;SDS011;58893;53.130;8.158;2023-04-05T02:26:02;7.37;;;3.67;;
71187;SDS011;58893;53.130;8.158;2023-04-05T02:28:28;7.20;;;3.80;;
71187;SDS011;58893;53.130;8.158;2023-04-05T02:30:54;7.00;;;3.83;;
71187;SDS011;58893;53.130;8.158;2023-04-05T02:33:20;10.07;;;4.97;;
71187;SDS011;58893;53.130;8.158;2023-04-05T02:35:48;6.43;;;3.60;;
71187;SDS011;58893;53.130;8.158;2023-04-05T02:38:16;9.10;;;4.00;;
71187;SDS011;58893;53.130;8.158;2023-04-05T02:40:41;7.03;;;3.00;;
71187;SDS011;58893;53.130;8.158;2023-04-05T02:43:10;11.77;;;3.93;;
71187;SDS011;58893;53.130;8.158;2023-04-05T02:45:35;10.40;;;3.90;;
71187;SDS011;58893;53.130;8.158;2023-04-05T02:48:01;6.40;;;4.03;;
71187;SDS011;58893;53.130;8.158;2023-04-05T02:50:26;8.47;;;3.23;;
71187;SDS011;58893;53.130;8.158;2023-04-05T02:52:52;9.70;;;3.13;;
71187;SDS011;58893;53.130;8.158;2023-04-05T02:55:18;7.00;;;3.90;;
71187;SDS011;58893;53.130;8.158;2023-04-05T02:57:43;9.07;;;4.10;;
71187;SDS011;58893;53.130;8.158;2023-04-05T03:00:09;7.07;;;3.70;;
71187;SDS011;58893;53.130;8.158;2023-04-05T03:02:36;7.33;;;4.13;;
71187;SDS011;58893;53.130;8.158;2023-04-05T03:05:04;8.70;;;3.80;;
71187;SDS011;58893;53.130;8.158;2023-04-05T03:07:30;7.10;;;3.50;;
71187;SDS011;58893;53.130;8.158;2023-04-05T03:09:56;7.07;;;3.77;;
71187;SDS011;58893;53.130;8.158;2023-04-05T03:12:23;5.40;;;3.50;;
71187;SDS011;58893;53.130;8.158;2023-04-05T03:14:49;5.93;;;3.13;;
71187;SDS011;58893;53.130;8.158;2023-04-05T03:17:15;8.17;;;3.47;;
71187;SDS011;58893;53.130;8.158;2023-04-05T03:19:40;6.80;;;3.60;;
71187;SDS011;58893;53.130;8.158;2023-04-05T03:22:06;7.27;;;4.00;;
71187;SDS011;58893;53.130;8.158;2023-04-05T03:24:32;4.83;;;3.20;;
71187;SDS011;58893;53.130;8.158;2023-04-05T03:27:00;9.13;;;3.90;;
71187;SDS011;58893;53.130;8.158;2023-04-05T03:29:27;8.80;;;3.97;;
71187;SDS011;58893;53.130;8.158;2023-04-05T03:31:53;8.90;;;3.50;;
71187;SDS011;58893;53.130;8.158;2023-04-05T03:34:18;5.60;;;3.23;;
71187;SDS011;58893;53.130;8.158;2023-04-05T03:36:46;7.57;;;3.43;;
71187;SDS011;58893;53.130;8.158;2023-04-05T03:39:13;12.00;;;3.77;;
71187;SDS011;58893;53.130;8.158;2023-04-05T03:41:39;7.23;;;3.70;;
71187;SDS011;58893;53.130;8.158;2023-04-05T03:44:05;9.43;;;3.37;;
71187;SDS011;58893;53.130;8.158;2023-04-05T03:46:32;5.77;;;3.60;;
71187;SDS011;58893;53.130;8.158;2023-04-05T03:48:58;7.83;;;3.77;;
71187;SDS011;58893;53.130;8.158;2023-04-05T03:51:24;9.07;;;4.40;;
71187;SDS011;58893;53.130;8.158;2023-04-05T03:53:51;8.67;;;3.90;;
71187;SDS011;58893;53.130;8.158;2023-04-05T03:56:17;6.90;;;3.60;;
71187;SDS011;58893;53.130;8.158;2023-04-05T03:58:43;6.70;;;3.80;;
71187;SDS011;58893;53.130;8.158;2023-04-05T04:01:09;11.00;;;3.60;;
71187;SDS011;58893;53.130;8.158;2023-04-05T04:03:34;6.57;;;3.90;;
71187;SDS011;58893;53.130;8.158;2023-04-05T04:06:06;6.37;;;3.03;;
71187;SDS011;58893;53.130;8.158;2023-04-05T04:08:32;6.17;;;3.80;;
71187;SDS011;58893;53.130;8.158;2023-04-05T04:10:57;10.00;;;4.60;;
71187;SDS011;58893;53.130;8.158;2023-04-05T04:13:23;9.77;;;3.63;;
71187;SDS011;58893;53.130;8.158;2023-04-05T04:15:49;8.10;;;3.40;;
71187;SDS011;58893;53.130;8.158;2023-04-05T04:18:15;5.10;;;3.37;;
71187;SDS011;58893;53.130;8.158;2023-04-05T04:20:40;13.37;;;3.97;;
71187;SDS011;58893;53.130;8.158;2023-04-05T04:23:06;10.40;;;3.80;;
71187;SDS011;58893;53.130;8.158;2023-04-05T04:25:36;10.00;;;3.83;;
71187;SDS011;58893;53.130;8.158;2023-04-05T04:28:03;6.13;;;3.70;;
71187;SDS011;58893;53.130;8.158;2023-04-05T04:30:33;6.90;;;3.93;;
71187;SDS011;58893;53.130;8.158;2023-04-05T04:33:02;6.53;;;3.17;;
71187;SDS011;58893;53.130;8.158;2023-04-05T04:35:29;10.33;;;5.17;;
71187;SDS011;58893;53.130;8.158;2023-04-05T04:38:04;5.53;;;3.60;;
71187;SDS011;58893;53.130;8.158;2023-04-05T04:43:10;7.47;;;4.40;;
71187;SDS011;58893;53.130;8.158;2023-04-05T04:45:38;10.07;;;4.53;;
71187;SDS011;58893;53.130;8.158;2023-04-05T04:48:04;5.77;;;3.83;;
71187;SDS011;58893;53.130;8.158;2023-04-05T04:50:30;10.60;;;4.60;;
71187;SDS011;58893;53.130;8.158;2023-04-05T04:53:00;8.87;;;4.07;;
71187;SDS011;58893;53.130;8.158;2023-04-05T04:55:26;5.50;;;3.83;;
71187;SDS011;58893;53.130;8.158;2023-04-05T04:57:52;6.93;;;3.77;;
71187;SDS011;58893;53.130;8.158;2023-04-05T05:00:19;6.23;;;3.50;;
71187;SDS011;58893;53.130;8.158;2023-04-05T05:02:46;6.80;;;3.50;;
71187;SDS011;58893;53.130;8.158;2023-04-05T05:05:12;7.97;;;3.90;;
71187;SDS011;58893;53.130;8.158;2023-04-05T05:07:39;7.90;;;3.53;;
71187;SDS011;58893;53.130;8.158;2023-04-05T05:10:06;7.63;;;3.77;;
71187;SDS011;58893;53.130;8.158;2023-04-05T05:12:33;6.40;;;3.63;;
71187;SDS011;58893;53.130;8.158;2023-04-05T05:14:58;6.60;;;3.90;;
71187;SDS011;58893;53.130;8.158;2023-04-05T05:17:24;7.80;;;4.03;;
71187;SDS011;58893;53.130;8.158;2023-04-05T05:19:50;5.10;;;3.00;;
71187;SDS011;58893;53.130;8.158;2023-04-05T05:22:16;7.67;;;4.70;;
71187;SDS011;58893;53.130;8.158;2023-04-05T05:24:43;8.33;;;4.20;;
71187;SDS011;58893;53.130;8.158;2023-04-05T05:27:09;5.80;;;3.07;;
71187;SDS011;58893;53.130;8.158;2023-04-05T05:29:35;8.20;;;4.63;;
71187;SDS011;58893;53.130;8.158;2023-04-05T05:32:00;9.47;;;4.33;;
71187;SDS011;58893;53.130;8.158;2023-04-05T05:34:26;16.10;;;4.93;;
71187;SDS011;58893;53.130;8.158;2023-04-05T05:36:53;7.93;;;3.33;;
71187;SDS011;58893;53.130;8.158;2023-04-05T05:39:19;5.87;;;3.67;;
71187;SDS011;58893;53.130;8.158;2023-04-05T05:41:45;6.57;;;3.70;;
71187;SDS011;58893;53.130;8.158;2023-04-05T05:44:10;7.00;;;4.17;;
71187;SDS011;58893;53.130;8.158;2023-04-05T05:46:36;24.00;;;5.70;;
71187;SDS011;58893;53.130;8.158;2023-04-05T05:49:02;6.13;;;4.23;;
71187;SDS011;58893;53.130;8.158;2023-04-05T05:51:27;8.33;;;4.00;;
71187;SDS011;58893;53.130;8.158;2023-04-05T05:53:53;7.73;;;4.10;;
71187;SDS011;58893;53.130;8.158;2023-04-05T05:56:19;12.23;;;5.20;;
71187;SDS011;58893;53.130;8.158;2023-04-05T05:58:44;9.60;;;4.50;;
71187;SDS011;58893;53.130;8.158;2023-04-05T06:01:10;8.70;;;3.43;;
71187;SDS011;58893;53.130;8.158;2023-04-05T06:03:38;5.50;;;3.77;;
71187;SDS011;58893;53.130;8.158;2023-04-05T06:06:04;9.90;;;4.50;;
71187;SDS011;58893;53.130;8.158;2023-04-05T06:08:32;9.13;;;3.90;;
71187;SDS011;58893;53.130;8.158;2023-04-05T06:10:58;11.43;;;4.50;;
71187;SDS011;58893;53.130;8.158;2023-04-05T06:13:24;6.93;;;4.00;;
71187;SDS011;58893;53.130;8.158;2023-04-05T06:15:50;9.70;;;4.03;;
71187;SDS011;58893;53.130;8.158;2023-04-05T06:18:16;9.23;;;5.27;;
71187;SDS011;58893;53.130;8.158;2023-04-05T06:20:42;14.13;;;4.10;;
71187;SDS011;58893;53.130;8.158;2023-04-05T06:23:11;6.80;;;3.97;;
71187;SDS011;58893;53.130;8.158;2023-04-05T06:25:37;7.67;;;4.57;;
71187;SDS011;58893;53.130;8.158;2023-04-05T06:28:03;8.03;;;3.97;;
71187;SDS011;58893;53.130;8.158;2023-04-05T06:30:30;9.23;;;4.63;;
71187;SDS011;58893;53.130;8.158;2023-04-05T06:32:56;9.23;;;4.10;;
71187;SDS011;58893;53.130;8.158;2023-04-05T06:35:22;11.40;;;5.10;;
71187;SDS011;58893;53.130;8.158;2023-04-05T06:37:48;8.30;;;4.47;;
71187;SDS011;58893;53.130;8.158;2023-04-05T06:40:15;6.57;;;4.17;;
71187;SDS011;58893;53.130;8.158;2023-04-05T06:42:41;9.37;;;4.30;;
71187;SDS011;58893;53.130;8.158;2023-04-05T06:45:07;10.93;;;4.57;;
71187;SDS011;58893;53.130;8.158;2023-04-05T06:47:34;7.50;;;4.33;;
71187;SDS011;58893;53.130;8.158;2023-04-05T06:50:01;7.37;;;3.60;;
71187;SDS011;58893;53.130;8.158;2023-04-05T06:52:28;7.87;;;4.07;;
71187;SDS011;58893;53.130;8.158;2023-04-05T06:54:53;8.80;;;3.43;;
71187;SDS011;58893;53.130;8.158;2023-04-05T06:57:20;9.83;;;2.80;;
71187;SDS011;58893;53.130;8.158;2023-04-05T06:59:45;9.33;;;4.07;;
71187;SDS011;58893;53.130;8.158;2023-04-05T07:02:11;6.67;;;3.90;;
71187;SDS011;58893;53.130;8.158;2023-04-05T07:04:40;5.93;;;2.93;;
71187;SDS011;58893;53.130;8.158;2023-04-05T07:07:05;9.17;;;3.53;;
71187;SDS011;58893;53.130;8.158;2023-04-05T07:09:31;5.30;;;3.13;;
71187;SDS011;58893;53.130;8.158;2023-04-05T07:11:58;5.77;;;3.17;;
71187;SDS011;58893;53.130;8.158;2023-04-05T07:14:24;5.70;;;2.97;;
71187;SDS011;58893;53.130;8.158;2023-04-05T07:16:50;5.27;;;3.20;;
71187;SDS011;58893;53.130;8.158;2023-04-05T07:19:16;8.00;;;3.33;;
71187;SDS011;58893;53.130;8.158;2023-04-05T07:21:42;7.77;;;3.93;;
71187;SDS011;58893;53.130;8.158;2023-04-05T07:24:08;6.13;;;3.30;;
71187;SDS011;58893;53.130;8.158;2023-04-05T07:26:35;18.03;;;4.10;;
71187;SDS011;58893;53.130;8.158;2023-04-05T07:29:02;5.90;;;3.20;;
71187;SDS011;58893;53.130;8.158;2023-04-05T07:31:29;5.73;;;3.90;;
71187;SDS011;58893;53.130;8.158;2023-04-05T07:33:55;10.97;;;3.70;;
71187;SDS011;58893;53.130;8.158;2023-04-05T07:36:22;6.40;;;3.03;;
71187;SDS011;58893;53.130;8.158;2023-04-05T07:38:48;6.63;;;3.33;;
71187;SDS011;58893;53.130;8.158;2023-04-05T07:41:14;5.17;;;2.97;;
71187;SDS011;58893;53.130;8.158;2023-04-05T07:43:42;11.00;;;3.87;;
71187;SDS011;58893;53.130;8.158;2023-04-05T07:46:08;6.23;;;3.40;;
71187;SDS011;58893;53.130;8.158;2023-04-05T07:48:33;7.17;;;4.13;;
71187;SDS011;58893;53.130;8.158;2023-04-05T07:51:03;8.70;;;3.47;;
71187;SDS011;58893;53.130;8.158;2023-04-05T07:53:32;11.80;;;3.33;;
71187;SDS011;58893;53.130;8.158;2023-04-05T07:56:17;8.03;;;3.57;;
71187;SDS011;58893;53.130;8.158;2023-04-05T07:58:43;5.87;;;3.40;;
71187;SDS011;58893;53.130;8.158;2023-04-05T08:01:09;6.00;;;3.73;;
71187;SDS011;58893;53.130;8.158;2023-04-05T08:03:35;5.97;;;2.83;;
71187;SDS011;58893;53.130;8.158;2023-04-05T08:06:09;4.40;;;2.83;;
71187;SDS011;58893;53.130;8.158;2023-04-05T08:08:36;8.40;;;3.50;;
71187;SDS011;58893;53.130;8.158;2023-04-05T08:11:04;5.50;;;3.00;;
71187;SDS011;58893;53.130;8.158;2023-04-05T08:13:30;5.20;;;2.80;;
71187;SDS011;58893;53.130;8.158;2023-04-05T08:15:57;5.67;;;3.37;;
71187;SDS011;58893;53.130;8.158;2023-04-05T08:18:25;5.07;;;3.10;;
71187;SDS011;58893;53.130;8.158;2023-04-05T08:20:52;7.50;;;3.43;;
71187;SDS011;58893;53.130;8.158;2023-04-05T08:23:18;4.50;;;2.80;;
71187;SDS011;58893;53.130;8.158;2023-04-05T08:25:44;8.23;;;3.60;;
71187;SDS011;58893;53.130;8.158;2023-04-05T08:28:10;8.13;;;3.50;;
71187;SDS011;58893;53.130;8.158;2023-04-05T08:30:37;3.60;;;2.73;;
71187;SDS011;58893;53.130;8.158;2023-04-05T08:33:03;8.30;;;3.53;;
71187;SDS011;58893;53.130;8.158;2023-04-05T08:35:29;4.57;;;2.90;;
71187;SDS011;58893;53.130;8.158;2023-04-05T08:37:55;11.10;;;3.00;;
71187;SDS011;58893;53.130;8.158;2023-04-05T08:40:20;7.40;;;2.87;;
71187;SDS011;58893;53.130;8.158;2023-04-05T08:42:56;4.00;;;2.50;;
71187;SDS011;58893;53.130;8.158;2023-04-05T08:45:32;7.30;;;2.90;;
71187;SDS011;58893;53.130;8.158;2023-04-05T08:47:58;5.10;;;2.77;;
71187;SDS011;58893;53.130;8.158;2023-04-05T08:50:24;4.73;;;2.53;;
71187;SDS011;58893;53.130;8.158;2023-04-05T08:52:51;3.67;;;1.80;;
71187;SDS011;58893;53.130;8.158;2023-04-05T08:55:17;4.17;;;2.20;;
71187;SDS011;58893;53.130;8.158;2023-04-05T08:57:43;4.27;;;1.70;;
71187;SDS011;58893;53.130;8.158;2023-04-05T09:00:14;3.50;;;2.00;;
71187;SDS011;58893;53.130;8.158;2023-04-05T09:02:41;2.83;;;2.03;;
71187;SDS011;58893;53.130;8.158;2023-04-05T09:05:08;5.57;;;2.37;;
71187;SDS011;58893;53.130;8.158;2023-04-05T09:07:35;5.57;;;2.80;;
71187;SDS011;58893;53.130;8.158;2023-04-05T09:10:02;6.63;;;2.77;;
71187;SDS011;58893;53.130;8.158;2023-04-05T09:12:30;4.17;;;2.20;;
71187;SDS011;58893;53.130;8.158;2023-04-05T09:14:57;13.40;;;3.20;;
71187;SDS011;58893;53.130;8.158;2023-04-05T09:17:25;11.33;;;3.50;;
71187;SDS011;58893;53.130;8.158;2023-04-05T09:19:53;3.60;;;2.30;;
71187;SDS011;58893;53.130;8.158;2023-04-05T09:22:18;5.23;;;2.73;;
71187;SDS011;58893;53.130;8.158;2023-04-05T09:24:44;6.13;;;2.93;;
71187;SDS011;58893;53.130;8.158;2023-04-05T09:27:11;3.17;;;2.20;;
71187;SDS011;58893;53.130;8.158;2023-04-05T09:29:38;4.60;;;2.50;;
71187;SDS011;58893;53.130;8.158;2023-04-05T09:32:05;10.73;;;3.27;;
71187;SDS011;58893;53.130;8.158;2023-04-05T09:34:32;7.67;;;2.63;;
71187;SDS011;58893;53.130;8.158;2023-04-05T09:37:00;7.07;;;2.40;;
71187;SDS011;58893;53.130;8.158;2023-04-05T09:39:29;6.00;;;2.73;;
71187;SDS011;58893;53.130;8.158;2023-04-05T09:42:15;8.73;;;2.30;;
71187;SDS011;58893;53.130;8.158;2023-04-05T09:47:30;5.83;;;3.30;;
71187;SDS011;58893;53.130;8.158;2023-04-05T09:49:59;8.13;;;3.00;;
71187;SDS011;58893;53.130;8.158;2023-04-05T09:54:53;4.97;;;3.03;;
71187;SDS011;58893;53.130;8.158;2023-04-05T09:57:23;4.50;;;2.20;;
71187;SDS011;58893;53.130;8.158;2023-04-05T09:59:53;4.50;;;2.00;;
71187;SDS011;58893;53.130;8.158;2023-04-05T10:02:22;5.37;;;2.60;;
71187;SDS011;58893;53.130;8.158;2023-04-05T10:04:48;7.50;;;3.00;;
71187;SDS011;58893;53.130;8.158;2023-04-05T10:07:15;3.80;;;2.10;;
71187;SDS011;58893;53.130;8.158;2023-04-05T10:09:43;5.87;;;3.03;;
71187;SDS011;58893;53.130;8.158;2023-04-05T10:12:11;5.30;;;2.47;;
71187;SDS011;58893;53.130;8.158;2023-04-05T10:14:42;4.47;;;2.90;;
71187;SDS011;58893;53.130;8.158;2023-04-05T10:17:10;5.10;;;2.30;;
71187;SDS011;58893;53.130;8.158;2023-04-05T10:22:29;10.27;;;2.73;;
71187;SDS011;58893;53.130;8.158;2023-04-05T10:25:24;7.90;;;2.70;;
71187;SDS011;58893;53.130;8.158;2023-04-05T10:30:39;5.53;;;2.30;;
71187;SDS011;58893;53.130;8.158;2023-04-05T10:36:38;2.80;;;1.57;;
71187;SDS011;58893;53.130;8.158;2023-04-05T10:38:41;2.20;;;1.80;;
71187;SDS011;58893;53.130;8.158;2023-04-05T10:41:09;8.00;;;2.20;;
71187;SDS011;58893;53.130;8.158;2023-04-05T10:43:36;5.93;;;2.80;;
71187;SDS011;58893;53.130;8.158;2023-04-05T10:46:06;3.57;;;1.83;;
71187;SDS011;58893;53.130;8.158;2023-04-05T10:51:23;3.93;;;2.30;;
71187;SDS011;58893;53.130;8.158;2023-04-05T10:53:50;8.43;;;2.40;;
71187;SDS011;58893;53.130;8.158;2023-04-05T10:56:17;5.50;;;2.27;;
71187;SDS011;58893;53.130;8.158;2023-04-05T10:58:43;4.53;;;2.40;;
71187;SDS011;58893;53.130;8.158;2023-04-05T11:01:10;3.03;;;2.00;;
71187;SDS011;58893;53.130;8.158;2023-04-05T11:08:44;5.30;;;1.93;;
71187;SDS011;58893;53.130;8.158;2023-04-05T11:11:12;6.80;;;2.60;;
71187;SDS011;58893;53.130;8.158;2023-04-05T11:16:45;2.93;;;1.93;;
71187;SDS011;58893;53.130;8.158;2023-04-05T11:19:14;2.90;;;2.20;;
71187;SDS011;58893;53.130;8.158;2023-04-05T11:21:41;6.00;;;2.03;;
71187;SDS011;58893;53.130;8.158;2023-04-05T11:24:08;4.63;;;1.90;;
71187;SDS011;58893;53.130;8.158;2023-04-05T11:29:08;3.97;;;2.00;;
71187;SDS011;58893;53.130;8.158;2023-04-05T11:31:34;5.20;;;2.20;;
71187;SDS011;58893;53.130;8.158;2023-04-05T11:34:06;2.33;;;1.63;;
71187;SDS011;58893;53.130;8.158;2023-04-05T11:44:41;8.53;;;1.70;;
71187;SDS011;58893;53.130;8.158;2023-04-05T11:47:08;2.97;;;2.00;;
71187;SDS011;58893;53.130;8.158;2023-04-05T11:49:35;3.97;;;1.93;;
71187;SDS011;58893;53.130;8.158;2023-04-05T11:52:09;3.20;;;2.03;;
71187;SDS011;58893;53.130;8.158;2023-04-05T11:54:42;4.07;;;1.97;;
71187;SDS011;58893;53.130;8.158;2023-04-05T11:57:13;14.47;;;2.40;;
71187;SDS011;58893;53.130;8.158;2023-04-05T11:59:42;3.87;;;2.10;;
71187;SDS011;58893;53.130;8.158;2023-04-05T12:02:08;1.83;;;1.60;;
71187;SDS011;58893;53.130;8.158;2023-04-05T12:04:34;2.10;;;1.80;;
71187;SDS011;58893;53.130;8.158;2023-04-05T12:09:33;2.70;;;2.00;;
71187;SDS011;58893;53.130;8.158;2023-04-05T12:11:59;3.40;;;1.87;;
71187;SDS011;58893;53.130;8.158;2023-04-05T12:14:24;5.20;;;2.03;;
71187;SDS011;58893;53.130;8.158;2023-04-05T12:16:50;11.53;;;1.97;;
71187;SDS011;58893;53.130;8.158;2023-04-05T12:19:16;4.20;;;1.80;;
71187;SDS011;58893;53.130;8.158;2023-04-05T12:21:42;3.53;;;1.87;;
71187;SDS011;58893;53.130;8.158;2023-04-05T12:24:08;3.40;;;1.80;;
71187;SDS011;58893;53.130;8.158;2023-04-05T12:26:34;3.77;;;2.80;;
71187;SDS011;58893;53.130;8.158;2023-04-05T12:29:02;3.63;;;2.23;;
71187;SDS011;58893;53.130;8.158;2023-04-05T12:31:44;4.40;;;2.00;;
71187;SDS011;58893;53.130;8.158;2023-04-05T12:34:11;4.23;;;2.00;;
71187;SDS011;58893;53.130;8.158;2023-04-05T12:36:42;3.00;;;1.70;;
71187;SDS011;58893;53.130;8.158;2023-04-05T12:39:10;2.10;;;1.60;;
71187;SDS011;58893;53.130;8.158;2023-04-05T12:41:35;9.00;;;1.50;;
71187;SDS011;58893;53.130;8.158;2023-04-05T12:44:04;4.90;;;1.90;;
71187;SDS011;58893;53.130;8.158;2023-04-05T12:46:38;7.73;;;1.70;;
71187;SDS011;58893;53.130;8.158;2023-04-05T12:49:15;4.30;;;1.87;;
71187;SDS011;58893;53.130;8.158;2023-04-05T12:51:42;6.10;;;4.43;;
71187;SDS011;58893;53.130;8.158;2023-04-05T12:54:12;5.40;;;2.17;;
71187;SDS011;58893;53.130;8.158;2023-04-05T12:56:38;3.30;;;1.83;;
71187;SDS011;58893;53.130;8.158;2023-04-05T12:59:05;3.97;;;2.20;;
71187;SDS011;58893;53.130;8.158;2023-04-05T13:01:31;4.43;;;2.03;;
71187;SDS011;58893;53.130;8.158;2023-04-05T13:03:58;3.57;;;2.10;;
71187;SDS011;58893;53.130;8.158;2023-04-05T13:06:25;7.30;;;2.70;;
71187;SDS011;58893;53.130;8.158;2023-04-05T13:08:51;2.90;;;2.17;;
71187;SDS011;58893;53.130;8.158;2023-04-05T13:11:17;5.37;;;1.70;;
71187;SDS011;58893;53.130;8.158;2023-04-05T13:13:43;4.60;;;2.30;;
71187;SDS011;58893;53.130;8.158;2023-04-05T13:16:08;7.57;;;2.20;;
71187;SDS011;58893;53.130;8.158;2023-04-05T13:18:34;2.03;;;1.73;;
71187;SDS011;58893;53.130;8.158;2023-04-05T13:21:00;3.83;;;2.03;;
71187;SDS011;58893;53.130;8.158;2023-04-05T13:23:31;3.33;;;2.33;;
71187;SDS011;58893;53.130;8.158;2023-04-05T13:26:01;6.40;;;2.47;;
71187;SDS011;58893;53.130;8.158;2023-04-05T13:28:29;6.13;;;2.43;;
71187;SDS011;58893;53.130;8.158;2023-04-05T13:30:55;4.10;;;2.27;;
71187;SDS011;58893;53.130;8.158;2023-04-05T13:33:21;6.23;;;2.00;;
71187;SDS011;58893;53.130;8.158;2023-04-05T13:35:47;4.93;;;2.37;;
71187;SDS011;58893;53.130;8.158;2023-04-05T13:38:13;9.20;;;2.10;;
71187;SDS011;58893;53.130;8.158;2023-04-05T13:40:39;3.47;;;2.37;;
71187;SDS011;58893;53.130;8.158;2023-04-05T13:43:04;13.90;;;3.83;;
71187;SDS011;58893;53.130;8.158;2023-04-05T13:45:31;3.00;;;1.90;;
71187;SDS011;58893;53.130;8.158;2023-04-05T13:47:57;3.10;;;1.83;;
71187;SDS011;58893;53.130;8.158;2023-04-05T13:50:23;3.07;;;2.27;;
71187;SDS011;58893;53.130;8.158;2023-04-05T13:52:49;7.00;;;2.13;;
71187;SDS011;58893;53.130;8.158;2023-04-05T13:55:15;5.30;;;1.93;;
71187;SDS011;58893;53.130;8.158;2023-04-05T13:57:41;2.80;;;2.40;;
71187;SDS011;58893;53.130;8.158;2023-04-05T14:00:07;4.13;;;2.40;;
71187;SDS011;58893;53.130;8.158;2023-04-05T14:02:33;4.80;;;2.60;;
71187;SDS011;58893;53.130;8.158;2023-04-05T14:04:59;7.10;;;2.60;;
71187;SDS011;58893;53.130;8.158;2023-04-05T14:07:25;2.97;;;2.13;;
71187;SDS011;58893;53.130;8.158;2023-04-05T14:09:51;4.53;;;2.20;;
71187;SDS011;58893;53.130;8.158;2023-04-05T14:12:17;3.53;;;2.20;;
71187;SDS011;58893;53.130;8.158;2023-04-05T14:14:42;4.17;;;1.90;;
71187;SDS011;58893;53.130;8.158;2023-04-05T14:17:08;5.20;;;2.83;;
71187;SDS011;58893;53.130;8.158;2023-04-05T14:19:36;7.50;;;2.43;;
71187;SDS011;58893;53.130;8.158;2023-04-05T14:22:02;4.17;;;2.10;;
71187;SDS011;58893;53.130;8.158;2023-04-05T14:24:28;2.70;;;1.70;;
71187;SDS011;58893;53.130;8.158;2023-04-05T14:26:53;5.80;;;2.50;;
71187;SDS011;58893;53.130;8.158;2023-04-05T14:29:20;6.57;;;2.33;;
71187;SDS011;58893;53.130;8.158;2023-04-05T14:31:46;2.50;;;2.03;;
71187;SDS011;58893;53.130;8.158;2023-04-05T14:34:12;3.10;;;2.33;;
71187;SDS011;58893;53.130;8.158;2023-04-05T14:36:38;2.30;;;1.80;;
71187;SDS011;58893;53.130;8.158;2023-04-05T14:39:04;3.90;;;2.50;;
71187;SDS011;58893;53.130;8.158;2023-04-05T14:41:30;3.40;;;2.63;;
71187;SDS011;58893;53.130;8.158;2023-04-05T14:43:56;5.40;;;2.70;;
71187;SDS011;58893;53.130;8.158;2023-04-05T14:46:22;3.40;;;2.20;;
71187;SDS011;58893;53.130;8.158;2023-04-05T14:48:47;4.20;;;2.30;;
71187;SDS011;58893;53.130;8.158;2023-04-05T14:51:13;2.60;;;1.93;;
71187;SDS011;58893;53.130;8.158;2023-04-05T14:53:39;3.70;;;2.53;;
71187;SDS011;58893;53.130;8.158;2023-04-05T14:56:05;3.47;;;2.40;;
71187;SDS011;58893;53.130;8.158;2023-04-05T14:58:34;8.03;;;2.03;;
71187;SDS011;58893;53.130;8.158;2023-04-05T15:01:00;5.40;;;2.37;;
71187;SDS011;58893;53.130;8.158;2023-04-05T15:03:26;8.27;;;2.53;;
71187;SDS011;58893;53.130;8.158;2023-04-05T15:05:51;4.30;;;2.00;;
71187;SDS011;58893;53.130;8.158;2023-04-05T15:08:17;3.73;;;2.40;;
71187;SDS011;58893;53.130;8.158;2023-04-05T15:10:43;2.57;;;2.00;;
71187;SDS011;58893;53.130;8.158;2023-04-05T15:13:10;5.50;;;1.90;;
71187;SDS011;58893;53.130;8.158;2023-04-05T15:15:36;3.33;;;2.43;;
71187;SDS011;58893;53.130;8.158;2023-04-05T15:18:03;3.60;;;2.40;;
71187;SDS011;58893;53.130;8.158;2023-04-05T15:20:29;6.63;;;2.80;;
71187;SDS011;58893;53.130;8.158;2023-04-05T15:22:55;3.20;;;2.20;;
71187;SDS011;58893;53.130;8.158;2023-04-05T15:25:20;8.87;;;2.90;;
71187;SDS011;58893;53.130;8.158;2023-04-05T15:27:46;3.60;;;2.30;;
71187;SDS011;58893;53.130;8.158;2023-04-05T15:30:12;7.20;;;3.00;;
71187;SDS011;58893;53.130;8.158;2023-04-05T15:32:38;5.17;;;2.83;;
71187;SDS011;58893;53.130;8.158;2023-04-05T15:35:04;7.93;;;2.63;;